createdAt,value
2018-06-08T00:02:13.530Z,32.67
2018-06-08T00:07:42.920Z,32.45
2018-06-08T00:13:12.229Z,31.73
2018-06-08T00:18:41.488Z,33.33
2018-06-08T00:24:10.852Z,32.57
2018-06-08T00:29:40.159Z,34.65
2018-06-08T00:35:09.406Z,35.03
2018-06-08T00:40:38.644Z,34.55
2018-06-08T00:46:08.016Z,34.80
2018-06-08T00:51:37.944Z,35.03
2018-06-08T00:57:08.837Z,35.20
2018-06-08T01:02:38.081Z,34.98
2018-06-08T01:08:07.333Z,35.23
2018-06-08T01:13:37.316Z,33.55
2018-06-08T01:19:06.495Z,33.78
2018-06-08T01:24:35.727Z,34.45
2018-06-08T01:30:05.023Z,35.80
2018-06-08T01:35:34.311Z,35.17
2018-06-08T01:41:03.550Z,33.88
2018-06-08T01:46:32.745Z,33.83
2018-06-08T01:52:02.064Z,32.90
2018-06-08T01:57:31.236Z,31.70
2018-06-08T02:03:00.479Z,31.33
2018-06-08T02:08:29.698Z,31.05
2018-06-08T02:13:58.683Z,29.80
2018-06-08T02:19:27.835Z,29.55
2018-06-08T02:24:57.053Z,26.55
2018-06-08T02:30:26.273Z,25.43
2018-06-08T02:35:55.464Z,23.57
2018-06-08T02:41:24.651Z,22.55
2018-06-08T02:46:53.921Z,25.52
2018-06-08T02:52:23.167Z,26.23
2018-06-08T02:57:52.371Z,27.17
2018-06-08T03:03:21.650Z,28.27
2018-06-08T03:08:50.901Z,31.00
2018-06-08T03:14:20.135Z,28.17
2018-06-08T03:19:49.383Z,27.50
2018-06-08T03:25:18.598Z,27.80
2018-06-08T03:30:47.790Z,27.15
2018-06-08T03:36:17.014Z,26.60
2018-06-08T03:41:46.335Z,26.23
2018-06-08T03:47:15.670Z,28.75
2018-06-08T03:52:44.992Z,26.23
2018-06-08T03:58:14.207Z,24.10
2018-06-08T04:03:43.473Z,20.43
2018-06-08T04:09:12.894Z,20.75
2018-06-08T04:14:42.234Z,19.75
2018-06-08T04:20:11.779Z,18.50
2018-06-08T04:25:41.255Z,19.03
2018-06-08T04:31:10.594Z,19.90
2018-06-08T04:36:39.904Z,19.70
2018-06-08T04:42:09.216Z,20.52
2018-06-08T04:47:38.423Z,22.60
2018-06-08T04:53:07.634Z,23.70
2018-06-08T04:58:38.061Z,25.43
2018-06-08T05:04:07.282Z,27.40
2018-06-08T05:09:36.456Z,26.90
2018-06-08T05:15:05.699Z,28.15
2018-06-08T05:20:34.883Z,24.07
2018-06-08T05:26:04.086Z,26.60
2018-06-08T05:31:33.337Z,24.40
2018-06-08T05:37:02.573Z,24.60
2018-06-08T05:42:31.807Z,25.90
2018-06-08T05:48:01.023Z,24.12
2018-06-08T05:53:30.250Z,24.47
2018-06-08T05:58:59.448Z,23.77
2018-06-08T06:04:28.672Z,24.70
2018-06-08T06:09:57.910Z,25.43
2018-06-08T06:15:27.144Z,25.10
2018-06-08T06:20:56.346Z,22.60
2018-06-08T06:26:25.585Z,20.45
2018-06-08T06:31:54.795Z,15.15
2018-06-08T06:37:23.954Z,13.60
2018-06-08T06:42:53.157Z,14.95
2018-06-08T06:48:22.399Z,12.83
2018-06-08T06:53:51.663Z,15.47
2018-06-08T06:59:20.885Z,22.40
2018-06-08T07:04:50.079Z,22.62
2018-06-08T07:10:19.315Z,23.70
2018-06-08T07:15:48.631Z,23.13
2018-06-08T07:21:18.239Z,24.70
2018-06-08T07:26:47.548Z,27.65
2018-06-08T07:32:16.806Z,25.68
2018-06-08T07:37:46.104Z,24.67
2018-06-08T07:43:15.398Z,23.10
2018-06-08T07:48:45.892Z,21.97
2018-06-08T07:54:15.223Z,17.90
2018-06-08T07:59:44.500Z,22.00
2018-06-08T08:05:13.916Z,22.53
2018-06-08T08:10:43.283Z,22.58
2018-06-08T08:16:12.622Z,25.50
2018-06-08T08:21:41.945Z,24.12
2018-06-08T08:27:11.297Z,25.07
2018-06-08T08:32:40.660Z,24.50
2018-06-08T08:38:10.031Z,21.83
2018-06-08T08:43:39.257Z,21.00
2018-06-08T08:49:08.615Z,20.97
2018-06-08T08:54:37.963Z,22.55
2018-06-08T09:00:07.173Z,21.07
2018-06-08T09:05:36.456Z,22.30
2018-06-08T09:11:05.713Z,20.03
2018-06-08T09:16:35.016Z,23.00
2018-06-08T09:22:04.257Z,16.87
2018-06-08T09:27:33.498Z,17.83
2018-06-08T09:33:02.405Z,18.57
2018-06-08T09:38:31.619Z,14.78
2018-06-08T09:44:00.828Z,10.80
2018-06-08T09:49:30.082Z,13.90
2018-06-08T09:54:59.319Z,11.17
2018-06-08T10:00:33.891Z,10.88
2018-06-08T10:06:03.123Z,12.80
2018-06-08T10:11:32.382Z,12.82
2018-06-08T10:17:01.601Z,12.20
2018-06-08T10:22:30.923Z,13.93
2018-06-08T10:28:00.194Z,16.52
2018-06-08T10:33:29.418Z,16.97
2018-06-08T10:38:59.735Z,14.73
2018-06-08T10:44:29.036Z,14.38
2018-06-08T10:49:58.315Z,17.00
2018-06-08T10:55:27.586Z,13.30
2018-06-08T11:00:56.810Z,15.93
2018-06-08T11:06:26.075Z,14.00
2018-06-08T11:11:55.269Z,15.93
2018-06-08T11:17:24.445Z,14.10
2018-06-08T11:22:53.745Z,9.10
2018-06-08T11:28:23.018Z,13.90
2018-06-08T11:33:52.315Z,12.53
2018-06-08T11:39:21.540Z,12.17
2018-06-08T11:44:50.874Z,9.57
2018-06-08T11:50:20.190Z,9.55
2018-06-08T11:55:49.449Z,10.90
2018-06-08T12:01:18.830Z,7.30
2018-06-08T12:06:48.077Z,10.67
2018-06-08T12:12:17.376Z,8.88
2018-06-08T12:17:46.755Z,9.00
2018-06-08T12:23:16.123Z,10.80
2018-06-08T12:28:45.354Z,9.90
2018-06-08T12:34:14.584Z,8.00
2018-06-08T12:39:43.902Z,7.20
2018-06-08T12:45:13.515Z,9.00
2018-06-08T12:50:43.326Z,9.03
2018-06-08T12:56:12.746Z,6.53
2018-06-08T13:01:42.144Z,8.20
2018-06-08T13:07:11.618Z,7.63
2018-06-08T13:12:40.942Z,6.57
2018-06-08T13:18:10.326Z,5.55
2018-06-08T13:23:39.792Z,7.25
2018-06-08T13:29:09.061Z,7.63
2018-06-08T13:34:38.325Z,8.03
2018-06-08T13:40:07.610Z,8.00
2018-06-08T13:45:36.829Z,8.03
2018-06-08T13:51:06.084Z,6.90
2018-06-08T13:56:35.401Z,6.10
2018-06-08T14:02:04.737Z,7.15
2018-06-08T14:07:33.916Z,5.73
2018-06-08T14:13:03.170Z,7.30
2018-06-08T14:18:32.377Z,6.17
2018-06-08T14:24:01.624Z,6.87
2018-06-08T14:29:30.925Z,5.53
2018-06-08T14:35:00.210Z,5.43
2018-06-08T14:40:29.510Z,6.50
2018-06-08T14:45:58.834Z,5.40
2018-06-08T14:51:28.091Z,5.70
2018-06-08T14:56:58.592Z,5.57
2018-06-08T15:02:28.160Z,5.13
2018-06-08T15:07:57.403Z,5.67
2018-06-08T15:13:26.629Z,6.07
2018-06-08T15:18:55.985Z,5.83
2018-06-08T15:24:25.324Z,5.50
2018-06-08T15:29:54.577Z,6.22
2018-06-08T15:35:25.890Z,4.10
2018-06-08T15:40:56.165Z,3.40
2018-06-08T15:46:25.379Z,4.93
2018-06-08T15:51:55.645Z,4.90
2018-06-08T15:57:24.837Z,4.27
2018-06-08T16:02:56.112Z,4.83
2018-06-08T16:08:25.348Z,5.00
2018-06-08T16:13:54.541Z,4.10
2018-06-08T16:19:23.823Z,3.30
2018-06-08T16:24:53.142Z,3.73
2018-06-08T16:30:22.440Z,3.17
2018-06-08T16:35:51.742Z,3.58
2018-06-08T16:41:21.073Z,4.50
2018-06-08T16:46:50.299Z,4.05
2018-06-08T16:52:19.569Z,4.40
2018-06-08T16:57:48.685Z,4.60
2018-06-08T17:03:17.996Z,7.00
2018-06-08T17:08:47.361Z,11.83
2018-06-08T17:14:16.809Z,8.00
2018-06-08T17:19:46.167Z,12.45
2018-06-08T17:25:15.371Z,16.42
2018-06-08T17:30:45.873Z,11.48
2018-06-08T17:36:15.291Z,8.53
2018-06-08T17:41:44.636Z,9.60
2018-06-08T17:47:13.950Z,6.13
2018-06-08T17:52:44.630Z,7.10
2018-06-08T17:58:14.141Z,6.30
2018-06-08T18:03:43.660Z,6.45
2018-06-08T18:09:13.455Z,6.55
2018-06-08T18:14:43.048Z,5.35
2018-06-08T18:20:12.533Z,6.70
2018-06-08T18:25:42.232Z,6.53
2018-06-08T18:31:11.795Z,3.20
2018-06-08T18:36:41.199Z,3.30
2018-06-08T18:42:10.598Z,3.87
2018-06-08T18:47:39.948Z,4.10
2018-06-08T19:01:02.028Z,3.50
2018-06-08T19:06:31.304Z,3.30
2018-06-08T19:12:00.605Z,3.50
2018-06-08T19:17:29.816Z,3.35
2018-06-08T19:22:59.050Z,4.22
2018-06-08T19:28:28.283Z,3.83
2018-06-08T19:33:57.511Z,2.92
2018-06-08T19:39:26.938Z,3.37
2018-06-08T19:44:56.153Z,3.58
2018-06-08T19:50:25.489Z,3.45
2018-06-08T19:55:54.753Z,3.42
2018-06-08T20:01:24.072Z,3.50
2018-06-08T20:06:53.348Z,3.87
2018-06-08T20:12:22.605Z,3.40
2018-06-08T20:17:53.856Z,4.03
2018-06-08T20:23:24.095Z,3.62
2018-06-08T20:28:53.365Z,3.58
2018-06-08T20:34:22.722Z,3.67
2018-06-08T20:39:53.054Z,4.90
2018-06-08T20:45:23.378Z,5.70
2018-06-08T20:50:52.778Z,4.97
2018-06-08T20:56:23.311Z,4.92
2018-06-08T21:01:52.628Z,4.87
2018-06-08T21:07:22.325Z,4.70
2018-06-08T21:12:51.625Z,3.80
2018-06-08T21:18:21.179Z,3.92
2018-06-08T21:23:50.572Z,4.60
2018-06-08T21:29:19.903Z,4.15
2018-06-08T21:34:49.407Z,4.35
2018-06-08T21:40:19.257Z,4.42
2018-06-08T21:45:48.733Z,4.83
2018-06-08T21:51:18.029Z,4.75
2018-06-08T21:56:47.342Z,5.42
2018-06-08T22:02:17.701Z,5.42
2018-06-08T22:07:47.019Z,5.37
2018-06-08T22:13:16.381Z,5.65
2018-06-08T22:18:45.956Z,4.87
2018-06-08T22:24:16.515Z,4.85
2018-06-08T22:29:46.036Z,6.28
2018-06-08T22:35:15.169Z,5.10
2018-06-08T22:40:45.128Z,5.15
2018-06-08T22:46:14.643Z,4.53
2018-06-08T22:51:44.138Z,3.95
2018-06-08T22:57:14.694Z,3.80
2018-06-08T23:02:44.017Z,4.35
2018-06-08T23:08:13.415Z,3.87
2018-06-08T23:13:42.809Z,3.92
2018-06-08T23:19:12.269Z,3.67
2018-06-08T23:24:42.530Z,3.80
2018-06-08T23:30:11.882Z,4.10
2018-06-08T23:35:43.158Z,2.98
2018-06-08T23:41:12.514Z,3.75
2018-06-08T23:46:41.985Z,4.22
2018-06-08T23:52:11.404Z,5.03
2018-06-08T23:57:40.708Z,4.87
